Nearby METAR Reports

(scroll for additional cities)

 

KPSP - Palm Springs, California, USA
Distance from station: WNW 7mi, 11km
Updated: Mon, 18-Feb-2019 3:53pm PST
Partly Cloudy
Partly Cloudy
 Wind from NW
Wind: NW 12 mph , 19 km/h
Temperature: 57°F , 14°C
Dew Point: 30°F , -1°C
Humidity: 36%
Barometer: 29.98 inHg , 1015.2 hPa
Clouds: Partly Cloudy
Visibility: 10 miles , 16 km
Cloud details: Partly Cloudy 10000 ft
2019/02/18 23:53 KPSP 182353Z 32010KT 10SM SCT100 14/M01 A2998 RMK AO2 WSHFT 2257 SLP153 T01391011 10150 20111 56009
KTRM - Thermal/Palm Spg, California, USA
Distance from station: SE 16mi, 26km
Updated: Mon, 18-Feb-2019 3:52pm PST
Few Clouds
Few Clouds
 Wind from WNW
Wind: WNW 8 mph , 13 km/h
Temperature: 61°F , 16°C
Dew Point: 25°F , -4°C
Humidity: 25%
Barometer: 29.94 inHg , 1013.9 hPa
Clouds: Few Clouds
Visibility: 10 miles , 16 km
Cloud details: Few Clouds 9000 ft
2019/02/18 23:52 KTRM 182352Z AUTO 29007KT 10SM FEW090 16/M04 A2994 RMK AO2 SLP139 T01611044 10178 20133 56013
 
KNXP - Twentynine Palms, California, USA
Distance from station: NNE 37mi, 60km
Updated: Mon, 18-Feb-2019 3:56pm PST
Clear
Clear
 Wind from NNW
Wind: NNW 17 mph , 28 km/h
Temperature: 50°F , 10°C
Wind Chill: 44°F , 7°C
Dew Point: 9°F , -13°C
Humidity: 19%
Barometer: 30.01 inHg , 1016.3 hPa
Clouds: Clear
Visibility: 10 miles , 16 km
2019/02/18 23:56 KNXP 182356Z AUTO 33015KT 10SM CLR 10/M13 A3001 RMK AO2 PK WND 31030/2343 SLP150 T01001128 10106 20072 56012 $
KL35 - Big Bear City, California, USA
Distance from station: NW 43mi, 69km
Updated: Mon, 18-Feb-2019 3:55pm PST
Partly Cloudy
Partly Cloudy
 Wind from NW
Wind: NW 6 mph , 9 km/h
Temperature: 23°F , -5°C
Wind Chill: 16°F , -9°C
Dew Point: 10°F , -12°C
Humidity: 58%
Barometer: 29.87 inHg , 1011.5 hPa
Clouds: Partly Cloudy
Visibility: 10 miles , 16 km
Cloud details: Partly Cloudy 3700 ft
Partly Cloudy 4400 ft
2019/02/18 23:55 KL35 182355Z AUTO 32005KT 10SM SCT037 SCT044 M05/M12 A2987 RMK AO2
 
KF70 - Murrieta/Temecula, California, USA
Distance from station: WSW 45mi, 73km
Updated: Mon, 18-Feb-2019 4:15pm PST
Overcast
Overcast
 Wind from E
Wind: E 16 mph , 26 km/h, Gust: 21 mph , 33 km/h
Temperature: 43°F , 6°C
Wind Chill: 35°F , 2°C
Dew Point: 36°F , 2°C
Humidity: 76%
Barometer: 29.97 inHg , 1014.9 hPa
Clouds: Overcast
Visibility: 10 miles , 16 km
Cloud details: Partly Cloudy 2800 ft
Mostly Cloudy 4300 ft
Overcast 5000 ft
2019/02/19 00:15 KF70 190015Z AUTO 10014G18KT 10SM SCT028 BKN043 OVC050 06/02 A2997 RMK AO1
KRIV - Riverside/March, California, USA
Distance from station: W 51mi, 82km
Updated: Mon, 18-Feb-2019 3:58pm PST
Mostly Cloudy
Mostly Cloudy
 Wind from E
Wind: E 12 mph , 19 km/h
Temperature: 48°F , 9°C
Wind Chill: 43°F , 6°C
Dew Point: 30°F , -1°C
Humidity: 50%
Barometer: 29.96 inHg , 1014.6 hPa
Clouds: Mostly Cloudy
Visibility: 10 miles , 16 km
Cloud details: Partly Cloudy 6500 ft
Mostly Cloudy 7500 ft
2019/02/18 23:58 KRIV 182358Z AUTO 09010KT 10SM SCT065 BKN075 09/M01 A2996 RMK AO2 SLP151 T00901009 10120 20074 55008
 
KSBD - San Bernardino, California, USA
Distance from station: WNW 54mi, 86km
Updated: Mon, 18-Feb-2019 3:50pm PST
Mostly Cloudy
Mostly Cloudy
 Wind from N
Wind: N 9 mph , 15 km/h
Temperature: 55°F , 13°C
Dew Point: 18°F , -8°C
Humidity: 23%
Barometer: 29.96 inHg , 1014.6 hPa
Clouds: Mostly Cloudy
Visibility: 7 miles , 11 km
Cloud details: Mostly Cloudy 5000 ft
2019/02/18 23:50 KSBD 182350Z 01008KT 7SM BKN050 13/M08 A2996
KRNM - Ramona, California, USA
Distance from station: SSW 60mi, 96km
Updated: Mon, 18-Feb-2019 4:03pm PST
Rain, Mostly cloudy
Rain, Mostly cloudy
 Wind from N
Wind: N 22 mph , 35 km/h, Gust: 31 mph , 50 km/h
Temperature: 45°F , 7°C
Wind Chill: 37°F , 3°C
Dew Point: 34°F , 1°C
Humidity: 66%
Barometer: 29.97 inHg , 1014.9 hPa
Summary: Rain
Clouds: Mostly Cloudy
Visibility: 8 miles , 13 km
Cloud details: Mostly Cloudy 4900 ft
Mostly Cloudy 5500 ft
2019/02/19 00:03 KRNM 190003Z 01019G27KT 8SM RA BKN049 BKN055 07/01 A2997 RMK AO2 PK WND 02027/2355 WSHFT 2343 P0000 T00670011 $
 
KRAL - Riverside, California, USA
Distance from station: W 62mi, 100km
Updated: Mon, 18-Feb-2019 3:53pm PST
Overcast
Overcast
 Wind from W
Wind: W 7 mph , 11 km/h, Gust: 17 mph , 28 km/h
Temperature: 50°F , 10°C
Wind Chill: 47°F , 8°C
Dew Point: 27°F , -3°C
Humidity: 40%
Barometer: 29.98 inHg , 1015.2 hPa
Clouds: Overcast
Visibility: 10 miles , 16 km
Cloud details: Mostly Cloudy 6000 ft
Overcast 8000 ft
2019/02/18 23:53 KRAL 182353Z 28006G15KT 10SM BKN060 OVC080 10/M03 A2998 RMK AO2 SLP145 T01001033 10144 20089 55008
KOKB - Oceanside, California, USA
Distance from station: SW 68mi, 109km
Updated: Mon, 18-Feb-2019 3:52pm PST
Clear
Clear
 Wind from WNW
Wind: WNW 13 mph , 20 km/h
Temperature: 54°F , 12°C
Dew Point: 37°F , 3°C
Humidity: 54%
Barometer: 29.99 inHg , 1015.6 hPa
Clouds: Clear
Visibility: 10 miles , 16 km
2019/02/18 23:52 KOKB 182352Z AUTO 30011KT 10SM CLR 12/03 A2999 RMK AO2 SLP155 T01220033 10133 20111 56013
 
KONT - Ontario, California, USA
Distance from station: WNW 71mi, 114km
Updated: Mon, 18-Feb-2019 3:53pm PST
Mostly Cloudy
Mostly Cloudy
 Wind from SW
Wind: SW 9 mph , 15 km/h
Temperature: 52°F , 11°C
Dew Point: 30°F , -1°C
Humidity: 44%
Barometer: 29.97 inHg , 1014.9 hPa
Clouds: Mostly Cloudy
Visibility: 10 miles , 16 km
Cloud details: Few Clouds 7000 ft
Mostly Cloudy 9000 ft
Mostly Cloudy 11000 ft
Mostly Cloudy 25000 ft
2019/02/18 23:53 KONT 182353Z 23008KT 10SM FEW070 BKN090 BKN110 BKN250 11/M01 A2997 RMK AO2 SLP155 T01111011 10144 20106 56008 $
KNJK - El Centro Naf, California, USA
Distance from station: SSE 78mi, 126km
Updated: Mon, 18-Feb-2019 9:56am PST
NOT Current
Few Clouds
Few Clouds
 Wind from W
Wind: W 9 mph , 15 km/h
Temperature: 57°F , 14°C
Dew Point: 25°F , -4°C
Humidity: 29%
Barometer: 30.06 inHg , 1017.9 hPa
Clouds: Few Clouds
Visibility: 10 miles , 16 km
Cloud details: Few Clouds 6000 ft
2019/02/18 17:56 KNJK 181756Z 28008KT 10SM FEW060 14/M04 A3006 RMK SLP195 T01391044 10139 20050 52007
 
KSEE - San Diego/Santee, California, USA
Distance from station: SSW 74mi, 120km
Updated: Mon, 18-Feb-2019 3:50pm PST
Mostly Cloudy
Mostly Cloudy
 Wind from W
Wind: W 12 mph , 19 km/h
Temperature: 52°F , 11°C
Dew Point: 36°F , 2°C
Humidity: 54%
Barometer: 29.99 inHg , 1015.6 hPa
Clouds: Mostly Cloudy
Visibility: 10 miles , 16 km
Cloud details: Mostly Cloudy 5000 ft
2019/02/18 23:50 KSEE 182350Z 26010KT 10SM BKN050 11/02 A2999
KCNO - Chino, California, USA
Distance from station: W 72mi, 116km
Updated: Mon, 18-Feb-2019 3:53pm PST
Mostly Cloudy
Mostly Cloudy
 Wind from SW
Wind: SW 7 mph , 11 km/h
Temperature: 46°F , 8°C
Wind Chill: 42°F , 6°C
Dew Point: 34°F , 1°C
Humidity: 62%
Barometer: 29.99 inHg , 1015.6 hPa
Clouds: Mostly Cloudy
Visibility: 10 miles , 16 km
Cloud details: Few Clouds 4500 ft
Mostly Cloudy 5500 ft
2019/02/18 23:53 KCNO 182353Z 22006KT 10SM FEW045 BKN055 08/01 A2999 RMK AO2 PK WND 33037/2256 WSHFT 2301 RAB2255E31 SLP158 P0001 60001 T00830011 10133 20067 56009 $

Metar display script from Saratoga-Weather.org